sensor_id;sensor_type;location;lat;lon;timestamp;temperature;humidity
80234;DHT22;69712;42.142;24.766;2024-02-23T00:02:10;7.80;66.50
80234;DHT22;69712;42.142;24.766;2024-02-23T00:04:36;7.80;66.00
80234;DHT22;69712;42.142;24.766;2024-02-23T00:07:01;7.90;65.60
80234;DHT22;69712;42.142;24.766;2024-02-23T00:09:28;7.90;65.30
80234;DHT22;69712;42.142;24.766;2024-02-23T00:11:54;8.00;65.10
80234;DHT22;69712;42.142;24.766;2024-02-23T00:14:20;8.00;64.80
80234;DHT22;69712;42.142;24.766;2024-02-23T00:16:46;8.00;65.00
80234;DHT22;69712;42.142;24.766;2024-02-23T00:19:13;8.00;65.20
80234;DHT22;69712;42.142;24.766;2024-02-23T00:21:39;7.90;65.60
80234;DHT22;69712;42.142;24.766;2024-02-23T00:24:08;7.90;65.70
80234;DHT22;69712;42.142;24.766;2024-02-23T00:26:34;8.00;66.50
80234;DHT22;69712;42.142;24.766;2024-02-23T00:28:59;7.80;66.00
80234;DHT22;69712;42.142;24.766;2024-02-23T00:31:25;7.80;66.20
80234;DHT22;69712;42.142;24.766;2024-02-23T00:33:51;7.70;67.30
80234;DHT22;69712;42.142;24.766;2024-02-23T00:36:17;7.90;66.30
80234;DHT22;69712;42.142;24.766;2024-02-23T00:38:42;7.90;65.80
80234;DHT22;69712;42.142;24.766;2024-02-23T00:41:08;7.70;66.20
80234;DHT22;69712;42.142;24.766;2024-02-23T00:43:40;7.40;67.60
80234;DHT22;69712;42.142;24.766;2024-02-23T00:46:10;7.30;68.30
80234;DHT22;69712;42.142;24.766;2024-02-23T01:29:55;7.80;65.90
80234;DHT22;69712;42.142;24.766;2024-02-23T01:32:22;7.90;65.90
80234;DHT22;69712;42.142;24.766;2024-02-23T01:34:48;7.80;65.80
80234;DHT22;69712;42.142;24.766;2024-02-23T01:37:14;7.90;65.80
80234;DHT22;69712;42.142;24.766;2024-02-23T01:39:40;8.00;65.50
80234;DHT22;69712;42.142;24.766;2024-02-23T01:42:06;8.00;65.00
80234;DHT22;69712;42.142;24.766;2024-02-23T01:44:31;8.00;65.10
80234;DHT22;69712;42.142;24.766;2024-02-23T01:46:57;8.00;65.10
80234;DHT22;69712;42.142;24.766;2024-02-23T01:49:23;8.00;65.00
80234;DHT22;69712;42.142;24.766;2024-02-23T01:51:56;8.00;65.20
80234;DHT22;69712;42.142;24.766;2024-02-23T01:54:22;7.90;65.40
80234;DHT22;69712;42.142;24.766;2024-02-23T01:56:49;7.90;65.40
80234;DHT22;69712;42.142;24.766;2024-02-23T01:59:15;8.00;65.10
80234;DHT22;69712;42.142;24.766;2024-02-23T02:18:32;7.80;66.20
80234;DHT22;69712;42.142;24.766;2024-02-23T02:20:58;7.90;66.30
80234;DHT22;69712;42.142;24.766;2024-02-23T02:23:24;7.90;66.30
80234;DHT22;69712;42.142;24.766;2024-02-23T02:49:26;7.70;67.00
80234;DHT22;69712;42.142;24.766;2024-02-23T02:51:53;7.70;66.90
80234;DHT22;69712;42.142;24.766;2024-02-23T02:54:19;7.70;67.00
80234;DHT22;69712;42.142;24.766;2024-02-23T02:56:47;7.70;67.00
80234;DHT22;69712;42.142;24.766;2024-02-23T02:59:13;7.70;67.00
80234;DHT22;69712;42.142;24.766;2024-02-23T03:01:39;7.60;67.00
80234;DHT22;69712;42.142;24.766;2024-02-23T03:04:05;7.60;68.60
80234;DHT22;69712;42.142;24.766;2024-02-23T03:06:31;7.40;67.70
80234;DHT22;69712;42.142;24.766;2024-02-23T03:08:57;7.50;67.20
80234;DHT22;69712;42.142;24.766;2024-02-23T03:11:22;7.40;67.80
80234;DHT22;69712;42.142;24.766;2024-02-23T03:13:48;7.40;68.00
80234;DHT22;69712;42.142;24.766;2024-02-23T03:16:17;7.30;67.70
80234;DHT22;69712;42.142;24.766;2024-02-23T03:18:44;7.30;67.60
80234;DHT22;69712;42.142;24.766;2024-02-23T03:21:10;7.10;67.10
80234;DHT22;69712;42.142;24.766;2024-02-23T03:23:36;7.00;67.80
80234;DHT22;69712;42.142;24.766;2024-02-23T03:26:02;6.90;67.70
80234;DHT22;69712;42.142;24.766;2024-02-23T03:28:28;6.80;68.30
80234;DHT22;69712;42.142;24.766;2024-02-23T03:30:54;6.70;68.00
80234;DHT22;69712;42.142;24.766;2024-02-23T03:33:19;6.70;68.50
80234;DHT22;69712;42.142;24.766;2024-02-23T03:35:45;6.70;68.40
80234;DHT22;69712;42.142;24.766;2024-02-23T03:38:11;6.70;67.70
80234;DHT22;69712;42.142;24.766;2024-02-23T03:40:37;6.70;68.00
80234;DHT22;69712;42.142;24.766;2024-02-23T03:43:04;6.70;67.70
80234;DHT22;69712;42.142;24.766;2024-02-23T03:45:31;6.50;67.80
80234;DHT22;69712;42.142;24.766;2024-02-23T03:47:57;6.60;68.00
80234;DHT22;69712;42.142;24.766;2024-02-23T03:50:23;6.40;68.60
80234;DHT22;69712;42.142;24.766;2024-02-23T03:52:49;6.20;68.70
80234;DHT22;69712;42.142;24.766;2024-02-23T03:55:15;6.20;68.60
80234;DHT22;69712;42.142;24.766;2024-02-23T03:57:40;6.20;68.90
80234;DHT22;69712;42.142;24.766;2024-02-23T04:00:07;6.20;67.80
80234;DHT22;69712;42.142;24.766;2024-02-23T04:02:34;6.20;68.20
80234;DHT22;69712;42.142;24.766;2024-02-23T04:05:00;6.10;67.80
80234;DHT22;69712;42.142;24.766;2024-02-23T04:07:26;6.10;68.00
80234;DHT22;69712;42.142;24.766;2024-02-23T04:09:51;6.10;68.10
80234;DHT22;69712;42.142;24.766;2024-02-23T04:12:20;6.10;68.00
80234;DHT22;69712;42.142;24.766;2024-02-23T04:14:46;6.20;67.70
80234;DHT22;69712;42.142;24.766;2024-02-23T04:17:12;6.30;67.90
80234;DHT22;69712;42.142;24.766;2024-02-23T04:19:39;6.20;68.90
80234;DHT22;69712;42.142;24.766;2024-02-23T04:22:06;6.20;69.40
80234;DHT22;69712;42.142;24.766;2024-02-23T04:24:36;6.00;69.60
80234;DHT22;69712;42.142;24.766;2024-02-23T04:27:04;6.10;69.70
80234;DHT22;69712;42.142;24.766;2024-02-23T04:29:30;6.10;69.10
80234;DHT22;69712;42.142;24.766;2024-02-23T04:31:55;6.30;68.40
80234;DHT22;69712;42.142;24.766;2024-02-23T04:34:21;6.30;67.90
80234;DHT22;69712;42.142;24.766;2024-02-23T04:36:47;6.40;68.10
80234;DHT22;69712;42.142;24.766;2024-02-23T04:39:13;6.20;68.70
80234;DHT22;69712;42.142;24.766;2024-02-23T04:41:38;6.10;68.60
80234;DHT22;69712;42.142;24.766;2024-02-23T04:44:04;6.20;68.10
80234;DHT22;69712;42.142;24.766;2024-02-23T04:46:31;6.40;67.30
80234;DHT22;69712;42.142;24.766;2024-02-23T04:48:56;6.50;67.30
80234;DHT22;69712;42.142;24.766;2024-02-23T04:51:22;6.50;67.20
80234;DHT22;69712;42.142;24.766;2024-02-23T04:53:49;6.50;66.70
80234;DHT22;69712;42.142;24.766;2024-02-23T04:56:15;6.50;67.10
80234;DHT22;69712;42.142;24.766;2024-02-23T04:58:41;6.50;66.80
80234;DHT22;69712;42.142;24.766;2024-02-23T05:01:08;6.60;66.60
80234;DHT22;69712;42.142;24.766;2024-02-23T05:03:34;6.60;66.60
80234;DHT22;69712;42.142;24.766;2024-02-23T05:06:00;6.60;66.70
80234;DHT22;69712;42.142;24.766;2024-02-23T05:08:25;6.60;66.70
80234;DHT22;69712;42.142;24.766;2024-02-23T05:10:53;6.60;66.20
80234;DHT22;69712;42.142;24.766;2024-02-23T05:13:18;6.60;66.50
80234;DHT22;69712;42.142;24.766;2024-02-23T05:15:44;6.70;66.60
80234;DHT22;69712;42.142;24.766;2024-02-23T05:18:10;6.80;66.40
80234;DHT22;69712;42.142;24.766;2024-02-23T05:23:58;6.70;66.40
80234;DHT22;69712;42.142;24.766;2024-02-23T05:26:24;6.70;66.20
80234;DHT22;69712;42.142;24.766;2024-02-23T05:28:50;6.60;66.60
80234;DHT22;69712;42.142;24.766;2024-02-23T05:31:15;6.70;66.50
80234;DHT22;69712;42.142;24.766;2024-02-23T05:33:42;6.90;65.70
80234;DHT22;69712;42.142;24.766;2024-02-23T05:36:08;7.00;65.30
80234;DHT22;69712;42.142;24.766;2024-02-23T05:38:34;7.00;64.60
80234;DHT22;69712;42.142;24.766;2024-02-23T05:41:00;7.10;64.60
80234;DHT22;69712;42.142;24.766;2024-02-23T05:43:26;7.00;64.70
80234;DHT22;69712;42.142;24.766;2024-02-23T05:45:52;7.00;65.00
80234;DHT22;69712;42.142;24.766;2024-02-23T05:48:17;7.20;64.80
80234;DHT22;69712;42.142;24.766;2024-02-23T05:50:44;7.20;64.60
80234;DHT22;69712;42.142;24.766;2024-02-23T05:53:10;7.20;64.70
80234;DHT22;69712;42.142;24.766;2024-02-23T05:55:36;7.30;64.10
80234;DHT22;69712;42.142;24.766;2024-02-23T05:58:02;7.40;64.00
80234;DHT22;69712;42.142;24.766;2024-02-23T06:00:29;7.40;63.70
80234;DHT22;69712;42.142;24.766;2024-02-23T06:02:56;7.50;63.60
80234;DHT22;69712;42.142;24.766;2024-02-23T06:05:22;7.50;64.40
80234;DHT22;69712;42.142;24.766;2024-02-23T06:07:48;7.50;63.50
80234;DHT22;69712;42.142;24.766;2024-02-23T06:10:13;7.70;63.20
80234;DHT22;69712;42.142;24.766;2024-02-23T06:12:39;7.90;63.30
80234;DHT22;69712;42.142;24.766;2024-02-23T06:15:05;8.10;62.60
80234;DHT22;69712;42.142;24.766;2024-02-23T06:17:31;8.60;61.10
80234;DHT22;69712;42.142;24.766;2024-02-23T06:19:57;9.00;59.60
80234;DHT22;69712;42.142;24.766;2024-02-23T06:22:24;9.40;58.10
80234;DHT22;69712;42.142;24.766;2024-02-23T06:24:51;10.10;56.00
80234;DHT22;69712;42.142;24.766;2024-02-23T06:27:16;10.60;54.20
80234;DHT22;69712;42.142;24.766;2024-02-23T06:29:42;11.10;52.80
80234;DHT22;69712;42.142;24.766;2024-02-23T06:32:08;11.90;51.10
80234;DHT22;69712;42.142;24.766;2024-02-23T06:34:34;12.50;48.30
80234;DHT22;69712;42.142;24.766;2024-02-23T06:37:00;12.80;47.20
80234;DHT22;69712;42.142;24.766;2024-02-23T06:39:25;12.40;47.00
80234;DHT22;69712;42.142;24.766;2024-02-23T06:41:51;12.60;49.00
80234;DHT22;69712;42.142;24.766;2024-02-23T06:44:17;12.80;47.40
80234;DHT22;69712;42.142;24.766;2024-02-23T06:46:43;13.30;46.00
80234;DHT22;69712;42.142;24.766;2024-02-23T06:49:09;13.20;46.00
80234;DHT22;69712;42.142;24.766;2024-02-23T06:51:35;12.40;46.80
80234;DHT22;69712;42.142;24.766;2024-02-23T06:54:01;12.90;45.30
80234;DHT22;69712;42.142;24.766;2024-02-23T06:56:29;13.40;43.80
80234;DHT22;69712;42.142;24.766;2024-02-23T06:58:55;13.80;42.20
80234;DHT22;69712;42.142;24.766;2024-02-23T07:01:21;13.70;42.30
80234;DHT22;69712;42.142;24.766;2024-02-23T07:03:46;14.50;42.10
80234;DHT22;69712;42.142;24.766;2024-02-23T07:06:14;14.10;42.70
80234;DHT22;69712;42.142;24.766;2024-02-23T07:08:44;13.60;42.30
80234;DHT22;69712;42.142;24.766;2024-02-23T07:11:10;15.00;42.20
80234;DHT22;69712;42.142;24.766;2024-02-23T07:13:36;17.70;36.60
80234;DHT22;69712;42.142;24.766;2024-02-23T07:16:02;16.80;37.10
80234;DHT22;69712;42.142;24.766;2024-02-23T07:18:29;17.40;34.70
80234;DHT22;69712;42.142;24.766;2024-02-23T07:20:54;17.80;34.50
80234;DHT22;69712;42.142;24.766;2024-02-23T07:23:20;18.80;33.30
80234;DHT22;69712;42.142;24.766;2024-02-23T07:25:48;18.80;32.60
80234;DHT22;69712;42.142;24.766;2024-02-23T07:28:16;19.60;31.20
80234;DHT22;69712;42.142;24.766;2024-02-23T07:30:45;20.40;31.00
80234;DHT22;69712;42.142;24.766;2024-02-23T07:33:12;20.90;29.20
80234;DHT22;69712;42.142;24.766;2024-02-23T07:35:37;21.60;28.80
80234;DHT22;69712;42.142;24.766;2024-02-23T07:38:03;21.50;28.40
80234;DHT22;69712;42.142;24.766;2024-02-23T07:40:30;22.30;27.70
80234;DHT22;69712;42.142;24.766;2024-02-23T07:42:57;22.80;27.40
80234;DHT22;69712;42.142;24.766;2024-02-23T07:45:23;23.30;26.50
80234;DHT22;69712;42.142;24.766;2024-02-23T07:47:49;23.30;26.20
80234;DHT22;69712;42.142;24.766;2024-02-23T07:50:15;23.10;26.40
80234;DHT22;69712;42.142;24.766;2024-02-23T07:52:41;22.90;26.00
80234;DHT22;69712;42.142;24.766;2024-02-23T07:55:07;23.70;26.50
80234;DHT22;69712;42.142;24.766;2024-02-23T07:57:33;23.50;26.40
80234;DHT22;69712;42.142;24.766;2024-02-23T08:00:00;23.70;26.50
80234;DHT22;69712;42.142;24.766;2024-02-23T08:02:25;22.10;28.30
80234;DHT22;69712;42.142;24.766;2024-02-23T08:04:52;22.60;27.50
80234;DHT22;69712;42.142;24.766;2024-02-23T08:07:18;22.60;29.30
80234;DHT22;69712;42.142;24.766;2024-02-23T08:09:43;23.50;28.40
80234;DHT22;69712;42.142;24.766;2024-02-23T08:12:10;21.80;29.20
80234;DHT22;69712;42.142;24.766;2024-02-23T08:14:36;23.20;28.20
80234;DHT22;69712;42.142;24.766;2024-02-23T08:17:02;22.10;28.40
80234;DHT22;69712;42.142;24.766;2024-02-23T08:19:28;22.90;27.80
80234;DHT22;69712;42.142;24.766;2024-02-23T08:21:54;23.90;27.20
80234;DHT22;69712;42.142;24.766;2024-02-23T08:24:20;24.40;25.80
80234;DHT22;69712;42.142;24.766;2024-02-23T08:26:46;23.40;27.70
80234;DHT22;69712;42.142;24.766;2024-02-23T08:29:11;24.40;27.40
80234;DHT22;69712;42.142;24.766;2024-02-23T08:31:37;23.30;27.60
80234;DHT22;69712;42.142;24.766;2024-02-23T08:34:03;23.70;27.20
80234;DHT22;69712;42.142;24.766;2024-02-23T08:36:29;25.40;26.50
80234;DHT22;69712;42.142;24.766;2024-02-23T08:38:54;25.10;25.20
80234;DHT22;69712;42.142;24.766;2024-02-23T08:41:20;24.80;25.50
80234;DHT22;69712;42.142;24.766;2024-02-23T08:43:46;24.50;25.80
80234;DHT22;69712;42.142;24.766;2024-02-23T08:46:12;24.50;26.30
80234;DHT22;69712;42.142;24.766;2024-02-23T08:48:38;24.50;26.90
80234;DHT22;69712;42.142;24.766;2024-02-23T08:51:04;23.30;27.90
80234;DHT22;69712;42.142;24.766;2024-02-23T08:53:30;25.20;27.30
80234;DHT22;69712;42.142;24.766;2024-02-23T08:55:56;25.00;26.20
80234;DHT22;69712;42.142;24.766;2024-02-23T08:58:23;25.70;26.90
80234;DHT22;69712;42.142;24.766;2024-02-23T09:00:48;23.70;27.50
80234;DHT22;69712;42.142;24.766;2024-02-23T09:03:14;21.30;29.70
80234;DHT22;69712;42.142;24.766;2024-02-23T09:05:40;21.90;29.60
80234;DHT22;69712;42.142;24.766;2024-02-23T09:08:06;23.30;29.30
80234;DHT22;69712;42.142;24.766;2024-02-23T09:10:32;23.60;27.50
80234;DHT22;69712;42.142;24.766;2024-02-23T09:12:58;24.50;27.50
80234;DHT22;69712;42.142;24.766;2024-02-23T09:15:23;23.60;27.10
80234;DHT22;69712;42.142;24.766;2024-02-23T09:17:49;24.30;27.40
80234;DHT22;69712;42.142;24.766;2024-02-23T09:20:16;24.30;26.30
80234;DHT22;69712;42.142;24.766;2024-02-23T09:22:42;23.40;28.60
80234;DHT22;69712;42.142;24.766;2024-02-23T09:25:07;23.70;28.00
80234;DHT22;69712;42.142;24.766;2024-02-23T09:27:34;24.80;27.50
80234;DHT22;69712;42.142;24.766;2024-02-23T09:30:02;26.50;25.40
80234;DHT22;69712;42.142;24.766;2024-02-23T09:32:29;27.10;23.80
80234;DHT22;69712;42.142;24.766;2024-02-23T09:34:55;24.90;26.10
80234;DHT22;69712;42.142;24.766;2024-02-23T09:37:21;22.60;29.00
80234;DHT22;69712;42.142;24.766;2024-02-23T09:39:46;21.70;30.50
80234;DHT22;69712;42.142;24.766;2024-02-23T09:42:12;22.70;30.30
80234;DHT22;69712;42.142;24.766;2024-02-23T09:44:39;23.20;28.90
80234;DHT22;69712;42.142;24.766;2024-02-23T09:47:07;23.40;28.30
80234;DHT22;69712;42.142;24.766;2024-02-23T09:49:39;24.10;28.30
80234;DHT22;69712;42.142;24.766;2024-02-23T09:52:08;24.90;27.60
80234;DHT22;69712;42.142;24.766;2024-02-23T09:54:37;24.90;26.80
80234;DHT22;69712;42.142;24.766;2024-02-23T09:57:09;24.50;26.50
80234;DHT22;69712;42.142;24.766;2024-02-23T09:59:36;24.70;26.60
80234;DHT22;69712;42.142;24.766;2024-02-23T10:02:09;24.10;26.10
80234;DHT22;69712;42.142;24.766;2024-02-23T10:04:42;24.30;27.20
80234;DHT22;69712;42.142;24.766;2024-02-23T10:07:09;23.60;26.90
80234;DHT22;69712;42.142;24.766;2024-02-23T10:09:35;23.00;28.60
80234;DHT22;69712;42.142;24.766;2024-02-23T10:12:03;22.60;29.40
80234;DHT22;69712;42.142;24.766;2024-02-23T10:14:29;22.40;29.60
80234;DHT22;69712;42.142;24.766;2024-02-23T10:16:55;22.70;29.30
80234;DHT22;69712;42.142;24.766;2024-02-23T10:19:22;23.40;28.30
80234;DHT22;69712;42.142;24.766;2024-02-23T10:21:48;23.60;28.60
80234;DHT22;69712;42.142;24.766;2024-02-23T10:24:17;23.30;28.10
80234;DHT22;69712;42.142;24.766;2024-02-23T10:26:44;21.90;29.00
80234;DHT22;69712;42.142;24.766;2024-02-23T10:29:10;21.60;30.50
80234;DHT22;69712;42.142;24.766;2024-02-23T10:31:36;21.80;29.80
80234;DHT22;69712;42.142;24.766;2024-02-23T10:34:08;22.30;29.50
80234;DHT22;69712;42.142;24.766;2024-02-23T10:36:42;21.60;29.90
80234;DHT22;69712;42.142;24.766;2024-02-23T10:39:08;21.60;30.20
80234;DHT22;69712;42.142;24.766;2024-02-23T10:41:39;21.80;30.00
80234;DHT22;69712;42.142;24.766;2024-02-23T10:44:11;21.10;30.70
80234;DHT22;69712;42.142;24.766;2024-02-23T10:46:37;20.90;31.60
80234;DHT22;69712;42.142;24.766;2024-02-23T10:49:06;19.90;31.30
80234;DHT22;69712;42.142;24.766;2024-02-23T10:51:33;20.60;33.00
80234;DHT22;69712;42.142;24.766;2024-02-23T10:53:59;21.00;31.10
80234;DHT22;69712;42.142;24.766;2024-02-23T10:56:25;21.50;29.80
80234;DHT22;69712;42.142;24.766;2024-02-23T10:58:52;21.50;30.10
80234;DHT22;69712;42.142;24.766;2024-02-23T11:01:19;21.20;30.40
80234;DHT22;69712;42.142;24.766;2024-02-23T11:03:46;21.60;30.60
80234;DHT22;69712;42.142;24.766;2024-02-23T11:06:16;22.10;30.20
80234;DHT22;69712;42.142;24.766;2024-02-23T11:08:47;22.00;29.40
80234;DHT22;69712;42.142;24.766;2024-02-23T11:11:16;22.30;29.60
80234;DHT22;69712;42.142;24.766;2024-02-23T11:13:43;21.60;30.00
80234;DHT22;69712;42.142;24.766;2024-02-23T11:16:09;21.30;30.10
80234;DHT22;69712;42.142;24.766;2024-02-23T11:18:36;20.90;32.10
80234;DHT22;69712;42.142;24.766;2024-02-23T11:21:05;20.80;31.20
80234;DHT22;69712;42.142;24.766;2024-02-23T11:23:45;20.70;30.30
80234;DHT22;69712;42.142;24.766;2024-02-23T11:26:14;20.70;30.80
80234;DHT22;69712;42.142;24.766;2024-02-23T11:28:50;20.60;31.70
80234;DHT22;69712;42.142;24.766;2024-02-23T11:31:21;20.70;32.80
80234;DHT22;69712;42.142;24.766;2024-02-23T11:33:54;20.90;31.50
80234;DHT22;69712;42.142;24.766;2024-02-23T11:36:34;21.50;30.00
80234;DHT22;69712;42.142;24.766;2024-02-23T11:39:01;21.20;29.00
80234;DHT22;69712;42.142;24.766;2024-02-23T11:41:28;20.30;31.20
80234;DHT22;69712;42.142;24.766;2024-02-23T11:43:55;20.60;30.90
80234;DHT22;69712;42.142;24.766;2024-02-23T11:46:21;20.40;30.50
80234;DHT22;69712;42.142;24.766;2024-02-23T11:48:48;20.60;30.90
80234;DHT22;69712;42.142;24.766;2024-02-23T11:51:23;20.80;31.90
80234;DHT22;69712;42.142;24.766;2024-02-23T11:53:50;21.20;31.10
80234;DHT22;69712;42.142;24.766;2024-02-23T11:56:16;21.60;29.60
80234;DHT22;69712;42.142;24.766;2024-02-23T11:58:43;22.00;28.90
80234;DHT22;69712;42.142;24.766;2024-02-23T12:01:09;22.40;29.60
80234;DHT22;69712;42.142;24.766;2024-02-23T12:03:35;22.50;29.90
80234;DHT22;69712;42.142;24.766;2024-02-23T12:06:02;22.50;28.80
80234;DHT22;69712;42.142;24.766;2024-02-23T12:08:30;22.90;29.00
80234;DHT22;69712;42.142;24.766;2024-02-23T12:11:03;23.30;27.40
80234;DHT22;69712;42.142;24.766;2024-02-23T12:13:29;23.00;27.50
80234;DHT22;69712;42.142;24.766;2024-02-23T12:15:55;22.70;27.60
80234;DHT22;69712;42.142;24.766;2024-02-23T12:18:24;22.70;28.20
80234;DHT22;69712;42.142;24.766;2024-02-23T12:20:53;22.70;28.30
80234;DHT22;69712;42.142;24.766;2024-02-23T12:23:19;22.70;27.90
80234;DHT22;69712;42.142;24.766;2024-02-23T12:25:54;22.10;28.10
80234;DHT22;69712;42.142;24.766;2024-02-23T12:28:22;22.30;28.50
80234;DHT22;69712;42.142;24.766;2024-02-23T12:31:04;23.00;27.90
80234;DHT22;69712;42.142;24.766;2024-02-23T12:33:37;24.20;26.90
80234;DHT22;69712;42.142;24.766;2024-02-23T12:36:06;24.30;26.50
80234;DHT22;69712;42.142;24.766;2024-02-23T12:38:38;24.50;26.20
80234;DHT22;69712;42.142;24.766;2024-02-23T12:41:04;25.40;26.00
80234;DHT22;69712;42.142;24.766;2024-02-23T12:43:30;25.70;24.90
80234;DHT22;69712;42.142;24.766;2024-02-23T12:45:57;24.60;25.70
80234;DHT22;69712;42.142;24.766;2024-02-23T12:48:23;23.40;27.40
80234;DHT22;69712;42.142;24.766;2024-02-23T12:50:49;23.90;27.30
80234;DHT22;69712;42.142;24.766;2024-02-23T12:56:02;24.00;26.10
80234;DHT22;69712;42.142;24.766;2024-02-23T12:58:29;24.10;26.60
80234;DHT22;69712;42.142;24.766;2024-02-23T13:00:56;24.50;26.60
80234;DHT22;69712;42.142;24.766;2024-02-23T13:03:21;24.80;26.00
80234;DHT22;69712;42.142;24.766;2024-02-23T13:05:47;24.60;26.20
80234;DHT22;69712;42.142;24.766;2024-02-23T13:08:13;25.40;26.20
80234;DHT22;69712;42.142;24.766;2024-02-23T13:10:39;26.30;25.30
80234;DHT22;69712;42.142;24.766;2024-02-23T13:13:05;26.50;24.00
80234;DHT22;69712;42.142;24.766;2024-02-23T13:15:30;26.70;23.90
80234;DHT22;69712;42.142;24.766;2024-02-23T13:17:56;26.10;24.20
80234;DHT22;69712;42.142;24.766;2024-02-23T13:20:23;25.60;25.10
80234;DHT22;69712;42.142;24.766;2024-02-23T13:22:50;25.30;24.70
80234;DHT22;69712;42.142;24.766;2024-02-23T13:25:15;25.40;25.00
80234;DHT22;69712;42.142;24.766;2024-02-23T13:27:41;23.90;26.40
80234;DHT22;69712;42.142;24.766;2024-02-23T13:30:08;23.80;26.60
80234;DHT22;69712;42.142;24.766;2024-02-23T13:32:34;23.60;26.90
80234;DHT22;69712;42.142;24.766;2024-02-23T13:35:00;23.80;26.70
80234;DHT22;69712;42.142;24.766;2024-02-23T13:37:29;23.90;26.40
80234;DHT22;69712;42.142;24.766;2024-02-23T13:39:55;23.40;27.00
80234;DHT22;69712;42.142;24.766;2024-02-23T13:42:21;22.30;27.50
80234;DHT22;69712;42.142;24.766;2024-02-23T13:44:47;22.10;28.50
80234;DHT22;69712;42.142;24.766;2024-02-23T13:47:12;21.50;29.40
80234;DHT22;69712;42.142;24.766;2024-02-23T13:49:38;21.70;29.00
80234;DHT22;69712;42.142;24.766;2024-02-23T13:52:04;21.90;29.00
80234;DHT22;69712;42.142;24.766;2024-02-23T13:54:30;22.20;28.60
80234;DHT22;69712;42.142;24.766;2024-02-23T13:56:56;22.10;28.60
80234;DHT22;69712;42.142;24.766;2024-02-23T13:59:21;22.20;28.90
80234;DHT22;69712;42.142;24.766;2024-02-23T14:01:47;22.20;28.60
80234;DHT22;69712;42.142;24.766;2024-02-23T14:04:13;22.20;28.30
80234;DHT22;69712;42.142;24.766;2024-02-23T14:06:38;22.30;28.70
80234;DHT22;69712;42.142;24.766;2024-02-23T14:09:04;21.90;29.10
80234;DHT22;69712;42.142;24.766;2024-02-23T14:11:30;21.90;29.30
80234;DHT22;69712;42.142;24.766;2024-02-23T14:13:57;21.90;28.90
80234;DHT22;69712;42.142;24.766;2024-02-23T14:16:23;22.00;28.70
80234;DHT22;69712;42.142;24.766;2024-02-23T14:18:49;22.10;28.60
80234;DHT22;69712;42.142;24.766;2024-02-23T14:21:15;22.40;28.90
80234;DHT22;69712;42.142;24.766;2024-02-23T14:23:42;22.70;28.50
80234;DHT22;69712;42.142;24.766;2024-02-23T14:26:08;22.40;28.60
80234;DHT22;69712;42.142;24.766;2024-02-23T14:28:34;22.30;28.40
80234;DHT22;69712;42.142;24.766;2024-02-23T14:31:00;21.40;29.60
80234;DHT22;69712;42.142;24.766;2024-02-23T14:33:26;21.50;29.50
80234;DHT22;69712;42.142;24.766;2024-02-23T14:35:52;21.70;29.50
80234;DHT22;69712;42.142;24.766;2024-02-23T14:38:18;22.20;28.70
80234;DHT22;69712;42.142;24.766;2024-02-23T14:40:43;22.60;28.20
80234;DHT22;69712;42.142;24.766;2024-02-23T14:43:09;22.50;28.70
80234;DHT22;69712;42.142;24.766;2024-02-23T14:45:35;22.60;28.20
80234;DHT22;69712;42.142;24.766;2024-02-23T14:48:02;23.00;27.80
80234;DHT22;69712;42.142;24.766;2024-02-23T14:50:28;23.10;27.60
80234;DHT22;69712;42.142;24.766;2024-02-23T14:52:53;23.30;27.10
80234;DHT22;69712;42.142;24.766;2024-02-23T14:55:19;23.50;27.20
80234;DHT22;69712;42.142;24.766;2024-02-23T14:57:45;23.60;27.10
80234;DHT22;69712;42.142;24.766;2024-02-23T15:00:12;23.60;27.10
80234;DHT22;69712;42.142;24.766;2024-02-23T15:02:38;23.50;27.20
80234;DHT22;69712;42.142;24.766;2024-02-23T15:05:07;22.90;27.60
80234;DHT22;69712;42.142;24.766;2024-02-23T15:07:33;22.30;28.60
80234;DHT22;69712;42.142;24.766;2024-02-23T15:10:01;22.20;28.80
80234;DHT22;69712;42.142;24.766;2024-02-23T15:12:31;22.20;28.30
80234;DHT22;69712;42.142;24.766;2024-02-23T15:14:57;22.10;29.10
80234;DHT22;69712;42.142;24.766;2024-02-23T15:17:23;21.90;29.10
80234;DHT22;69712;42.142;24.766;2024-02-23T15:19:49;21.80;29.50
80234;DHT22;69712;42.142;24.766;2024-02-23T15:22:15;21.80;29.50
80234;DHT22;69712;42.142;24.766;2024-02-23T15:24:41;21.80;29.50
80234;DHT22;69712;42.142;24.766;2024-02-23T15:27:10;21.70;29.30
80234;DHT22;69712;42.142;24.766;2024-02-23T15:29:36;21.60;29.50
80234;DHT22;69712;42.142;24.766;2024-02-23T15:32:02;21.40;30.10
80234;DHT22;69712;42.142;24.766;2024-02-23T15:34:28;21.20;30.00
80234;DHT22;69712;42.142;24.766;2024-02-23T15:36:55;21.00;29.90
80234;DHT22;69712;42.142;24.766;2024-02-23T15:39:21;20.90;30.50
80234;DHT22;69712;42.142;24.766;2024-02-23T15:41:47;20.60;32.00
80234;DHT22;69712;42.142;24.766;2024-02-23T15:44:13;20.40;31.30
80234;DHT22;69712;42.142;24.766;2024-02-23T15:46:39;20.30;31.70
80234;DHT22;69712;42.142;24.766;2024-02-23T15:49:07;20.20;31.80
80234;DHT22;69712;42.142;24.766;2024-02-23T15:51:32;20.10;32.20
80234;DHT22;69712;42.142;24.766;2024-02-23T15:54:02;20.00;32.20
80234;DHT22;69712;42.142;24.766;2024-02-23T15:56:28;19.90;32.70
80234;DHT22;69712;42.142;24.766;2024-02-23T15:58:54;19.70;32.60
80234;DHT22;69712;42.142;24.766;2024-02-23T16:01:20;19.60;33.20
80234;DHT22;69712;42.142;24.766;2024-02-23T16:03:46;19.40;33.50
80234;DHT22;69712;42.142;24.766;2024-02-23T16:06:12;19.20;34.00
80234;DHT22;69712;42.142;24.766;2024-02-23T16:08:42;19.00;34.40
80234;DHT22;69712;42.142;24.766;2024-02-23T16:11:09;18.80;34.80
80234;DHT22;69712;42.142;24.766;2024-02-23T16:13:37;18.60;35.20
80234;DHT22;69712;42.142;24.766;2024-02-23T16:16:04;18.50;35.70
80234;DHT22;69712;42.142;24.766;2024-02-23T16:18:30;18.40;36.30
80234;DHT22;69712;42.142;24.766;2024-02-23T16:20:58;18.40;35.90
80234;DHT22;69712;42.142;24.766;2024-02-23T16:23:25;18.40;36.00
80234;DHT22;69712;42.142;24.766;2024-02-23T16:25:50;18.40;36.40
80234;DHT22;69712;42.142;24.766;2024-02-23T16:28:16;18.30;36.80
80234;DHT22;69712;42.142;24.766;2024-02-23T16:30:42;18.30;36.70
80234;DHT22;69712;42.142;24.766;2024-02-23T16:33:08;18.20;36.70
80234;DHT22;69712;42.142;24.766;2024-02-23T16:35:34;18.20;36.60
80234;DHT22;69712;42.142;24.766;2024-02-23T16:37:59;18.10;37.30
80234;DHT22;69712;42.142;24.766;2024-02-23T16:40:26;18.00;37.00
80234;DHT22;69712;42.142;24.766;2024-02-23T16:42:55;17.80;37.40
80234;DHT22;69712;42.142;24.766;2024-02-23T16:45:22;17.80;37.50